Time;durP1;ratioP1;P1;durP2;ratioP2;P2;SDS_P1;SDS_P2;PMS_P1;PMS_P2;Temp;Humidity;BMP_temperature;BMP_pressure;BME280_temperature;BME280_humidity;BME280_pressure;Samples;Min_cycle;Max_cycle;Signal;HPM_P1;HPM_P2
2021/03/29 00:00:26;;;;;;;3.80;2.40;;;;;;;7.35;51.65;97836.38;5114655;28;20040;-74
2021/03/29 00:02:53;;;;;;;3.22;2.00;;;;;;;7.31;51.76;97840.28;5114753;28;20392;-75
2021/03/29 00:05:22;;;;;;;4.32;2.28;;;;;;;7.29;51.86;97839.63;5096768;28;20036;-74
2021/03/29 00:07:53;;;;;;;2.80;1.92;;;;;;;7.26;52.63;97847.78;5114558;28;20380;-75
2021/03/29 00:10:20;;;;;;;5.00;1.92;;;;;;;7.25;52.16;97849.56;5114782;28;20031;-74
2021/03/29 00:12:50;;;;;;;3.22;2.40;;;;;;;7.26;52.28;97839.94;5113402;28;20407;-74
2021/03/29 00:15:21;;;;;;;3.08;2.38;;;;;;;7.26;52.26;97843.34;5114404;28;20054;-74
2021/03/29 00:17:47;;;;;;;3.22;2.30;;;;;;;7.27;52.20;97849.41;5113620;28;20039;-75
2021/03/29 00:20:20;;;;;;;3.83;2.08;;;;;;;7.28;52.17;97840.59;5114807;28;20365;-74
2021/03/29 00:22:46;;;;;;;4.22;2.30;;;;;;;7.29;52.12;97845.66;5114214;28;20377;-74
2021/03/29 00:25:15;;;;;;;4.32;2.28;;;;;;;7.29;52.27;97843.06;5113408;28;20040;-74
2021/03/29 00:27:42;;;;;;;2.53;2.05;;;;;;;7.30;52.21;97842.06;5114441;28;20412;-74
2021/03/29 00:30:19;;;;;;;4.35;2.40;;;;;;;7.29;52.36;97845.66;5113696;28;20128;-74
2021/03/29 00:32:46;;;;;;;2.97;1.83;;;;;;;7.28;52.19;97848.44;5095879;28;20064;-75
2021/03/29 00:35:15;;;;;;;6.60;2.30;;;;;;;7.28;52.23;97846.63;5096327;28;20046;-74
2021/03/29 00:37:45;;;;;;;2.55;1.90;;;;;;;7.25;52.31;97843.53;5114765;28;20468;-74
2021/03/29 00:40:12;;;;;;;3.15;1.95;;;;;;;7.24;52.22;97839.28;5114026;28;20027;-74
2021/03/29 00:42:41;;;;;;;2.03;1.92;;;;;;;7.23;52.38;97845.50;5113501;28;20043;-74
2021/03/29 00:45:18;;;;;;;2.85;2.10;;;;;;;7.21;52.31;97837.81;5095934;28;20050;-74
2021/03/29 00:47:46;;;;;;;2.83;2.25;;;;;;;7.20;52.46;97840.59;5110036;28;20040;-75
2021/03/29 00:50:16;;;;;;;2.00;1.80;;;;;;;7.17;52.60;97844.34;5114035;28;20031;-75
2021/03/29 00:52:43;;;;;;;2.40;2.10;;;;;;;7.15;52.42;97853.31;5114055;28;20044;-74
2021/03/29 00:55:10;;;;;;;3.22;2.15;;;;;;;7.11;52.49;97850.19;5113845;28;20028;-74
2021/03/29 00:57:39;;;;;;;2.10;1.90;;;;;;;7.08;52.46;97856.56;5095895;28;20054;-74
2021/03/29 01:00:40;;;;;;;4.55;2.20;;;;;;;7.04;52.71;97849.22;5113803;28;20372;-74
2021/03/29 01:03:29;;;;;;;2.40;2.20;;;;;;;7.01;53.09;97858.16;5112506;28;20050;-74
2021/03/29 01:06:01;;;;;;;2.42;2.22;;;;;;;6.99;52.62;97857.53;5111326;28;20043;-74
2021/03/29 01:08:28;;;;;;;2.58;2.20;;;;;;;6.96;52.67;97852.63;5095778;28;20027;-74
2021/03/29 01:10:57;;;;;;;3.08;2.30;;;;;;;6.94;52.56;97845.94;5113331;28;20040;-74
2021/03/29 01:13:24;;;;;;;3.20;2.15;;;;;;;6.92;52.71;97856.53;5112331;28;20044;-74
2021/03/29 01:15:52;;;;;;;3.78;1.90;;;;;;;6.92;52.64;97848.69;5094861;28;20066;-74
2021/03/29 01:18:21;;;;;;;2.72;2.38;;;;;;;6.93;52.61;97855.56;5113472;28;20040;-75
2021/03/29 01:21:06;;;;;;;2.97;1.83;;;;;;;6.88;52.56;97853.41;5106523;28;20050;-74
2021/03/29 01:23:32;;;;;;;2.75;2.03;;;;;;;6.86;52.40;97849.34;5114071;28;20036;-74
2021/03/29 01:26:12;;;;;;;2.80;2.30;;;;;;;6.83;52.56;97860.91;5112769;28;20395;-75
2021/03/29 01:28:39;;;;;;;2.67;2.15;;;;;;;6.79;52.49;97854.38;5113359;28;20472;-75
2021/03/29 01:31:05;;;;;;;2.92;1.98;;;;;;;6.75;52.52;97853.06;5111768;28;20054;-74
2021/03/29 01:33:32;;;;;;;2.38;2.10;;;;;;;6.73;52.60;97864.63;5112217;28;20074;-74
2021/03/29 01:36:01;;;;;;;2.35;1.73;;;;;;;6.68;52.69;97858.09;5113136;28;20472;-74
2021/03/29 01:38:30;;;;;;;2.95;2.05;;;;;;;6.65;52.74;97858.41;5108569;28;20040;-74
2021/03/29 01:41:00;;;;;;;2.50;1.95;;;;;;;6.63;52.83;97855.13;5112820;28;20040;-74
2021/03/29 01:43:27;;;;;;;3.10;2.03;;;;;;;6.59;52.58;97859.03;5113279;28;20400;-74
2021/03/29 01:45:58;;;;;;;2.30;1.90;;;;;;;6.55;52.83;97859.50;5112792;28;20031;-74
2021/03/29 01:48:25;;;;;;;2.10;1.90;;;;;;;6.51;52.75;97856.41;5094771;28;20038;-75
2021/03/29 01:50:53;;;;;;;3.22;2.08;;;;;;;6.47;52.90;97860.31;5113252;28;20403;-74
2021/03/29 01:53:24;;;;;;;2.20;1.77;;;;;;;6.42;52.79;97862.56;5113007;28;20032;-74
2021/03/29 01:55:51;;;;;;;3.45;2.10;;;;;;;6.36;53.03;97863.19;5112688;28;20036;-75
2021/03/29 01:58:19;;;;;;;5.68;2.40;;;;;;;6.30;52.87;97862.84;5112824;28;20042;-74
2021/03/29 02:00:50;;;;;;;3.28;2.10;;;;;;;6.27;53.14;97864.94;5095509;28;20491;-74
2021/03/29 02:03:18;;;;;;;3.00;2.10;;;;;;;6.24;52.99;97865.25;5112611;28;20050;-74
2021/03/29 02:05:45;;;;;;;3.38;2.17;;;;;;;6.20;53.02;97864.75;5112010;28;20047;-74
2021/03/29 02:08:12;;;;;;;3.03;2.00;;;;;;;6.17;53.09;97870.25;5112997;28;20040;-74
2021/03/29 02:10:41;;;;;;;4.82;2.40;;;;;;;6.13;53.18;97868.09;5113563;28;20089;-74
2021/03/29 02:13:19;;;;;;;1.85;1.65;;;;;;;6.06;53.21;97863.50;5112393;28;20051;-74
2021/03/29 02:16:00;;;;;;;4.57;2.28;;;;;;;6.02;53.70;97863.97;5112996;28;20043;-74
2021/03/29 02:18:37;;;;;;;2.53;2.00;;;;;;;5.98;53.48;97860.03;5104708;28;20399;-74
2021/03/29 02:21:07;;;;;;;3.30;2.20;;;;;;;5.93;53.52;97855.28;5112547;28;20062;-74
2021/03/29 02:23:34;;;;;;;3.65;2.08;;;;;;;5.90;53.44;97859.00;5112734;28;20035;-74
2021/03/29 02:26:03;;;;;;;4.43;1.92;;;;;;;5.88;53.65;97857.53;5112417;28;20051;-75
2021/03/29 02:28:30;;;;;;;2.38;2.10;;;;;;;5.85;53.69;97850.81;5112623;28;20036;-74
2021/03/29 02:31:00;;;;;;;2.65;2.00;;;;;;;5.87;54.01;97863.69;5112484;28;20035;-75
2021/03/29 02:33:27;;;;;;;2.28;2.05;;;;;;;5.88;53.81;97854.94;5113958;28;20046;-74
2021/03/29 02:35:54;;;;;;;3.17;2.20;;;;;;;5.89;54.11;97851.34;5116455;28;20036;-74
2021/03/29 02:38:20;;;;;;;4.50;2.03;;;;;;;5.90;53.96;97853.00;5116601;28;20036;-74
2021/03/29 02:40:51;;;;;;;2.78;1.83;;;;;;;5.89;54.44;97857.34;5116189;28;20051;-75
2021/03/29 02:43:20;;;;;;;2.28;1.60;;;;;;;5.88;54.11;97865.34;5116208;28;20031;-74
2021/03/29 02:45:51;;;;;;;2.60;1.63;;;;;;;5.88;54.28;97855.72;5115161;28;20121;-74
2021/03/29 02:48:20;;;;;;;4.10;1.92;;;;;;;5.85;54.05;97850.81;5115730;28;20035;-74
2021/03/29 02:50:49;;;;;;;1.67;1.52;;;;;;;5.84;54.09;97861.41;5116149;28;20046;-74
2021/03/29 02:53:32;;;;;;;2.25;1.60;;;;;;;5.83;54.55;97865.78;5116178;28;20402;-74
2021/03/29 02:56:05;;;;;;;4.20;2.23;;;;;;;5.80;54.38;97865.28;5098462;28;20036;-74
2021/03/29 02:58:32;;;;;;;3.28;1.90;;;;;;;5.78;54.23;97873.25;5116301;28;20031;-74
2021/03/29 03:00:59;;;;;;;3.50;1.80;;;;;;;5.77;54.53;97875.97;5115337;28;20048;-75
2021/03/29 03:03:26;;;;;;;2.65;1.95;;;;;;;5.74;54.23;97871.09;5125612;27;20044;-74
2021/03/29 03:05:53;;;;;;;2.20;1.70;;;;;;;5.72;54.35;97873.03;5116408;28;20044;-75
2021/03/29 03:08:21;;;;;;;2.58;1.90;;;;;;;5.73;54.60;97874.66;5115860;28;20476;-74
2021/03/29 03:10:48;;;;;;;2.55;1.85;;;;;;;5.72;54.45;97880.84;5116210;28;20031;-74
2021/03/29 03:13:14;;;;;;;4.55;1.60;;;;;;;5.69;54.61;97882.78;5115670;28;20039;-74
2021/03/29 03:15:41;;;;;;;2.25;2.00;;;;;;;5.68;54.38;97881.13;5116145;28;20043;-74
2021/03/29 03:18:10;;;;;;;2.33;1.80;;;;;;;5.65;54.37;97881.44;5096981;28;20027;-74
2021/03/29 03:20:38;;;;;;;2.40;1.80;;;;;;;5.62;54.43;97881.72;5114997;28;20043;-74
2021/03/29 03:23:07;;;;;;;2.95;1.88;;;;;;;5.60;54.51;97885.47;5097253;28;20511;-74
2021/03/29 03:25:36;;;;;;;2.95;1.85;;;;;;;5.56;54.37;97882.34;5115787;28;20031;-74
2021/03/29 03:28:06;;;;;;;3.10;1.80;;;;;;;5.54;54.89;97891.25;5115149;28;20036;-74
2021/03/29 03:30:37;;;;;;;2.08;1.88;;;;;;;5.51;54.64;97895.00;5115602;28;20392;-74
2021/03/29 03:33:06;;;;;;;2.63;1.85;;;;;;;5.49;54.65;97895.13;5115205;28;20534;-74
2021/03/29 03:35:35;;;;;;;2.67;1.88;;;;;;;5.47;54.76;97893.66;5115557;28;20051;-74
2021/03/29 03:38:25;;;;;;;3.53;2.20;;;;;;;5.45;55.05;97895.59;5115674;28;20035;-75
2021/03/29 03:41:26;;;;;;;2.10;1.92;;;;;;;5.42;55.21;97895.91;5096631;28;20043;-75
2021/03/29 03:43:55;;;;;;;3.35;2.30;;;;;;;5.38;54.69;97891.97;5084249;28;20040;-74
2021/03/29 03:46:31;;;;;;;2.22;1.80;;;;;;;5.33;54.88;97900.19;5113987;28;20039;-75
2021/03/29 03:49:04;;;;;;;2.22;1.70;;;;;;;5.31;54.92;97891.72;5105046;28;20043;-74
2021/03/29 03:51:31;;;;;;;2.28;2.00;;;;;;;5.28;54.66;97899.81;5108012;28;20396;-74
2021/03/29 03:53:58;;;;;;;2.35;1.80;;;;;;;5.25;54.81;97894.94;5114814;28;20054;-74
2021/03/29 03:56:25;;;;;;;4.00;1.92;;;;;;;5.22;54.83;97903.81;5114392;28;20051;-75
2021/03/29 03:58:53;;;;;;;1.85;1.65;;;;;;;5.19;54.88;97896.34;5115196;28;20051;-74
2021/03/29 04:01:20;;;;;;;2.63;1.55;;;;;;;5.17;54.93;97902.66;5113772;28;20118;-75
2021/03/29 04:03:46;;;;;;;3.58;1.98;;;;;;;5.13;55.09;97894.31;5114306;28;20044;-74
2021/03/29 04:06:12;;;;;;;2.20;1.73;;;;;;;5.08;54.97;97897.38;5114607;28;20047;-74
2021/03/29 04:08:39;;;;;;;5.18;1.80;;;;;;;5.06;55.13;97904.50;5114804;28;20395;-74
2021/03/29 04:11:06;;;;;;;5.20;2.50;;;;;;;5.05;55.26;97899.44;5113706;28;20062;-75
2021/03/29 04:13:33;;;;;;;2.95;1.83;;;;;;;5.02;55.30;97904.94;5093589;28;20039;-73
2021/03/29 04:16:04;;;;;;;1.83;1.70;;;;;;;4.99;55.15;97900.81;5114139;28;20070;-75
2021/03/29 04:18:30;;;;;;;3.28;2.00;;;;;;;4.97;55.33;97907.16;5113337;28;20044;-74
2021/03/29 04:20:57;;;;;;;3.65;2.10;;;;;;;4.93;55.35;97900.59;5095915;28;20038;-74
2021/03/29 04:23:25;;;;;;;4.43;2.33;;;;;;;4.89;55.27;97897.47;5114822;28;20032;-74
2021/03/29 04:25:52;;;;;;;2.38;1.85;;;;;;;4.85;55.60;97896.13;5114713;28;20032;-74
2021/03/29 04:28:19;;;;;;;3.90;2.17;;;;;;;4.81;55.45;97900.81;5114053;28;20031;-74
2021/03/29 04:30:46;;;;;;;3.42;2.20;;;;;;;4.78;55.56;97913.28;5114658;28;20032;-75
2021/03/29 04:33:12;;;;;;;3.08;1.90;;;;;;;4.75;55.71;97908.38;5114883;28;20047;-74
2021/03/29 04:35:39;;;;;;;3.50;2.15;;;;;;;4.70;55.69;97907.97;5114431;28;20047;-74
2021/03/29 04:38:05;;;;;;;2.15;1.92;;;;;;;4.67;55.66;97911.69;5114043;28;20046;-75
2021/03/29 04:40:32;;;;;;;2.33;1.80;;;;;;;4.62;55.77;97908.69;5101137;28;20035;-74
2021/03/29 04:42:59;;;;;;;3.53;2.17;;;;;;;4.59;56.03;97909.00;5113053;28;20487;-74
2021/03/29 04:45:26;;;;;;;4.45;2.17;;;;;;;4.55;56.14;97916.25;5095879;28;20460;-75
2021/03/29 04:47:52;;;;;;;5.35;2.50;;;;;;;4.52;56.01;97915.72;5114219;28;20043;-74
2021/03/29 04:50:21;;;;;;;2.63;2.00;;;;;;;4.46;56.31;97917.91;5113786;28;20054;-74
2021/03/29 04:52:47;;;;;;;3.33;1.65;;;;;;;4.43;56.31;97914.78;5114033;28;20044;-74
2021/03/29 04:55:14;;;;;;;2.63;2.10;;;;;;;4.39;56.15;97921.22;5112873;28;20463;-74
2021/03/29 04:57:41;;;;;;;3.08;1.90;;;;;;;4.61;60.07;97868.09;5113458;28;20050;-74
2021/03/29 05:00:09;;;;;;;3.38;2.30;;;;;;;4.74;57.85;97854.75;5113161;28;20047;-74
2021/03/29 05:02:36;;;;;;;4.53;2.35;;;;;;;4.71;57.20;97853.25;5114147;28;20048;-74
2021/03/29 05:05:03;;;;;;;3.17;2.10;;;;;;;4.63;57.00;97853.16;5114150;28;20059;-74
2021/03/29 05:07:29;;;;;;;4.50;2.47;;;;;;;4.54;56.89;97854.88;5114042;28;20036;-74
2021/03/29 05:09:55;;;;;;;2.63;2.03;;;;;;;4.47;56.84;97861.59;5095665;28;20399;-74
2021/03/29 05:12:24;;;;;;;3.05;2.35;;;;;;;4.38;57.02;97867.66;5114758;28;20043;-74
2021/03/29 05:14:51;;;;;;;2.83;2.30;;;;;;;4.29;57.36;97871.94;5114286;28;20366;-74
2021/03/29 05:17:19;;;;;;;5.15;2.40;;;;;;;4.22;57.39;97876.88;5113792;28;20043;-74
2021/03/29 05:19:46;;;;;;;3.45;2.42;;;;;;;4.17;57.60;97875.66;5095969;28;20050;-74
2021/03/29 05:22:12;;;;;;;3.40;2.30;;;;;;;4.15;57.65;97885.38;5112602;28;20043;-74
2021/03/29 05:24:38;;;;;;;3.75;2.25;;;;;;;4.13;57.79;97887.28;5113653;28;20055;-74
2021/03/29 05:27:06;;;;;;;2.95;1.90;;;;;;;4.11;57.70;97889.22;5113986;28;20464;-74
2021/03/29 05:29:43;;;;;;;3.30;2.40;;;;;;;4.06;57.65;97887.03;5113641;28;20035;-74
2021/03/29 05:32:18;;;;;;;3.58;2.45;;;;;;;4.05;58.34;97894.00;5113690;28;20048;-74
2021/03/29 05:34:46;;;;;;;5.80;2.53;;;;;;;4.05;58.04;97890.56;5113336;28;20047;-74
2021/03/29 05:37:13;;;;;;;4.95;2.75;;;;;;;4.02;58.17;97891.69;5113490;28;20031;-74
2021/03/29 05:39:40;;;;;;;4.07;2.58;;;;;;;4.04;57.96;97899.34;5113181;28;20039;-74
2021/03/29 05:42:08;;;;;;;3.80;2.30;;;;;;;4.05;58.11;97898.38;5113480;28;20372;-74
2021/03/29 05:44:35;;;;;;;4.53;2.25;;;;;;;4.11;58.27;97897.81;5113648;28;20032;-74
2021/03/29 05:47:03;;;;;;;4.32;2.47;;;;;;;4.14;58.47;97900.13;5113348;28;20023;-74
2021/03/29 05:49:33;;;;;;;4.68;2.55;;;;;;;4.22;59.02;97908.03;5113553;28;20030;-73
2021/03/29 05:52:00;;;;;;;4.20;2.47;;;;;;;4.24;58.40;97900.94;5114095;28;20452;-74
2021/03/29 05:54:27;;;;;;;5.45;2.50;;;;;;;4.29;58.48;97902.28;5095404;28;20031;-74
2021/03/29 05:56:54;;;;;;;6.43;2.83;;;;;;;4.33;58.52;97899.25;5113880;28;20058;-74
2021/03/29 06:02:05;;;;;;;5.20;2.55;;;;;;;4.43;58.85;97912.19;5113459;28;20036;-74
2021/03/29 06:04:45;;;;;;;4.20;2.35;;;;;;;4.51;59.87;97916.69;5113510;28;20471;-74
2021/03/29 06:07:18;;;;;;;3.90;2.55;;;;;;;4.58;59.47;97925.56;5115961;28;20039;-74
2021/03/29 06:09:46;;;;;;;4.88;2.75;;;;;;;4.63;59.09;97923.34;5117522;28;20039;-74
2021/03/29 06:12:15;;;;;;;4.05;2.88;;;;;;;4.69;59.12;97914.97;5117746;28;20553;-74
2021/03/29 06:14:45;;;;;;;5.05;2.95;;;;;;;4.80;58.93;97930.34;5117543;28;20043;-74
2021/03/29 06:17:13;;;;;;;3.30;2.33;;;;;;;4.90;59.25;97935.50;5117382;28;20042;-74
2021/03/29 06:19:44;;;;;;;4.45;2.65;;;;;;;5.04;59.13;97941.97;5117710;28;20019;-74
2021/03/29 06:22:14;;;;;;;5.35;2.47;;;;;;;5.20;59.21;97939.56;5117461;28;20040;-74
2021/03/29 06:24:52;;;;;;;4.43;2.45;;;;;;;5.54;59.39;97949.31;5117018;28;20036;-74
2021/03/29 06:27:21;;;;;;;3.58;2.60;;;;;;;5.71;58.55;97950.28;5117338;28;20035;-74
2021/03/29 06:29:47;;;;;;;5.32;2.90;;;;;;;5.76;58.17;97950.66;5117535;28;20403;-74
2021/03/29 06:32:18;;;;;;;4.13;3.00;;;;;;;5.83;57.58;97943.06;5116868;28;20043;-74
2021/03/29 06:34:48;;;;;;;2.92;2.60;;;;;;;5.94;57.80;97950.63;5116656;28;20069;-74
2021/03/29 06:37:18;;;;;;;3.95;2.88;;;;;;;6.01;57.15;97945.69;5117124;28;20043;-74
2021/03/29 06:39:45;;;;;;;3.50;2.47;;;;;;;6.06;57.42;97954.66;5117335;28;20043;-74
2021/03/29 06:42:11;;;;;;;4.32;2.90;;;;;;;6.22;57.65;97960.97;5117067;28;20477;-74
2021/03/29 06:44:38;;;;;;;3.85;2.85;;;;;;;6.36;57.26;97960.41;5117038;28;20044;-74
2021/03/29 06:47:11;;;;;;;5.38;2.92;;;;;;;6.47;56.56;97954.94;5116857;28;20035;-74
2021/03/29 06:49:40;;;;;;;6.15;2.80;;;;;;;6.49;56.36;97965.22;5116554;28;20069;-74
2021/03/29 06:52:30;;;;;;;3.22;2.55;;;;;;;6.53;55.67;97957.88;5116979;28;20023;-74
2021/03/29 06:55:21;;;;;;;3.33;2.97;;;;;;;6.58;55.30;97958.25;5116659;28;20035;-74
2021/03/29 06:58:23;;;;;;;4.65;3.10;;;;;;;6.56;54.89;97955.78;5116728;28;20361;-74
2021/03/29 07:00:54;;;;;;;4.85;3.20;;;;;;;6.50;55.85;97967.66;5099528;28;20472;-74
2021/03/29 07:03:20;;;;;;;4.38;3.28;;;;;;;6.56;56.08;97968.84;5117105;28;20043;-74
2021/03/29 07:05:51;;;;;;;5.57;3.50;;;;;;;6.66;56.18;97969.53;5115734;28;20051;-74
2021/03/29 07:08:18;;;;;;;5.75;3.20;;;;;;;6.84;55.99;97969.44;5098108;28;20042;-74
2021/03/29 07:10:44;;;;;;;6.80;3.42;;;;;;;7.53;56.17;97967.53;5115374;28;20040;-74
2021/03/29 07:13:13;;;;;;;3.50;2.83;;;;;;;8.31;54.91;97971.47;5116380;28;20054;-74
2021/03/29 07:15:40;;;;;;;7.30;4.18;;;;;;;8.59;54.38;97946.75;5116301;28;20487;-74
2021/03/29 07:18:07;;;;;;;6.38;3.25;;;;;;;8.65;53.63;97954.78;5115651;28;20031;-74
2021/03/29 07:20:35;;;;;;;3.15;2.85;;;;;;;8.45;53.16;97956.13;5115390;28;20055;-74
2021/03/29 07:23:01;;;;;;;4.57;3.15;;;;;;;8.23;53.46;97963.66;5097810;28;20503;-74
2021/03/29 07:25:36;;;;;;;6.07;3.70;;;;;;;8.18;53.65;97967.72;5116295;28;20028;-74
2021/03/29 07:28:09;;;;;;;4.88;3.67;;;;;;;8.23;53.97;97974.09;5115603;28;20050;-74
2021/03/29 07:30:45;;;;;;;4.15;3.35;;;;;;;8.38;53.92;97970.78;5116020;28;20039;-74
2021/03/29 07:33:11;;;;;;;6.35;3.67;;;;;;;8.52;54.05;97968.38;5097355;28;20059;-74
2021/03/29 07:35:52;;;;;;;6.88;3.50;;;;;;;8.62;53.57;97969.97;5116131;28;20036;-74
2021/03/29 07:38:24;;;;;;;6.43;3.67;;;;;;;8.98;53.41;97970.34;5115826;28;20043;-74
2021/03/29 07:40:53;;;;;;;5.88;4.25;;;;;;;9.51;53.31;97965.31;5105376;28;20039;-74
2021/03/29 07:43:22;;;;;;;6.95;3.47;;;;;;;9.83;52.59;97958.25;5115645;28;20047;-74
2021/03/29 07:45:55;;;;;;;7.40;3.33;;;;;;;10.24;51.95;97953.44;5115708;28;20039;-74
2021/03/29 07:48:43;;;;;;;4.55;3.38;;;;;;;10.71;50.08;97935.81;5115618;28;20036;-74
2021/03/29 07:51:14;;;;;;;7.47;3.38;;;;;;;11.35;51.07;97943.81;5115401;28;20102;-74
2021/03/29 07:53:46;;;;;;;7.45;3.25;;;;;;;11.84;49.72;97931.75;5115663;28;20089;-74
2021/03/29 07:56:34;;;;;;;5.90;3.05;;;;;;;12.28;45.42;97891.25;5114370;28;20071;-74
2021/03/29 07:59:03;;;;;;;3.63;2.72;;;;;;;12.67;48.12;97920.63;5109937;28;20028;-74
2021/03/29 08:01:59;;;;;;;3.55;2.63;;;;;;;13.07;43.12;97887.38;5115056;28;20032;-75
2021/03/29 08:05:04;;;;;;;6.03;2.85;;;;;;;13.38;42.53;97893.97;5108424;28;20044;-75
2021/03/29 08:07:36;;;;;;;5.57;2.97;;;;;;;13.53;43.69;97918.31;5114488;28;20418;-75
2021/03/29 08:10:05;;;;;;;3.40;2.53;;;;;;;13.58;44.70;97958.06;5114758;28;20042;-74
2021/03/29 08:12:32;;;;;;;4.60;2.88;;;;;;;13.74;44.50;97972.72;5115249;28;20043;-75
2021/03/29 08:14:59;;;;;;;5.65;2.67;;;;;;;13.97;44.06;97980.25;5115018;28;20464;-75
2021/03/29 08:17:52;;;;;;;4.72;2.72;;;;;;;14.25;40.00;97954.69;5115088;28;20043;-74
2021/03/29 08:20:43;;;;;;;5.32;2.70;;;;;;;14.63;40.20;97965.41;5085077;28;20105;-74
2021/03/29 08:23:33;;;;;;;5.95;2.40;;;;;;;14.82;39.93;97967.22;5096950;28;20042;-75
2021/03/29 08:26:14;;;;;;;6.63;2.72;;;;;;;15.09;38.65;97959.19;5104587;28;20031;-75
2021/03/29 08:29:11;;;;;;;4.53;2.88;;;;;;;15.21;38.53;97968.09;5096407;28;20066;-75
2021/03/29 08:31:59;;;;;;;4.28;2.50;;;;;;;15.40;37.17;97969.00;5097962;28;20043;-75
2021/03/29 08:34:33;;;;;;;6.15;2.55;;;;;;;15.54;39.38;97983.00;5113798;28;20048;-74
2021/03/29 08:37:05;;;;;;;3.72;2.42;;;;;;;15.45;37.56;97976.31;5114937;28;20411;-75
2021/03/29 08:39:37;;;;;;;3.92;2.40;;;;;;;15.46;37.44;97975.31;5114724;28;20340;-74
2021/03/29 08:42:05;;;;;;;2.83;2.20;;;;;;;15.27;38.24;97987.59;5114501;28;20050;-75
2021/03/29 08:44:32;;;;;;;4.50;2.55;;;;;;;15.17;38.04;97984.56;5114517;28;20024;-75
2021/03/29 08:46:59;;;;;;;4.65;2.50;;;;;;;15.13;38.03;97986.81;5114489;28;20047;-74
2021/03/29 08:49:26;;;;;;;3.92;2.40;;;;;;;15.22;37.84;97990.03;5114463;28;20400;-74
2021/03/29 08:51:53;;;;;;;2.53;1.90;;;;;;;15.06;37.72;98001.91;5114536;28;20039;-74
2021/03/29 08:54:19;;;;;;;3.08;2.05;;;;;;;15.10;37.65;97996.97;5114314;28;20467;-75
2021/03/29 08:56:50;;;;;;;2.85;2.10;;;;;;;15.20;37.43;98005.28;5114500;28;20058;-74
2021/03/29 08:59:17;;;;;;;2.50;2.20;;;;;;;15.32;37.13;97986.94;5113090;28;20043;-75
2021/03/29 09:01:43;;;;;;;2.53;2.30;;;;;;;15.41;37.19;97993.63;5114541;28;20046;-75
2021/03/29 09:04:11;;;;;;;5.63;2.13;;;;;;;15.74;37.20;97995.31;5114114;28;20035;-75
2021/03/29 09:06:37;;;;;;;4.35;2.22;;;;;;;15.92;36.74;98000.69;5114031;28;20046;-75
2021/03/29 09:09:17;;;;;;;3.72;2.38;;;;;;;15.86;36.34;97992.81;5114030;28;20046;-75
2021/03/29 09:11:45;;;;;;;2.03;1.83;;;;;;;15.98;36.62;97994.56;5114159;28;20051;-75
2021/03/29 09:14:15;;;;;;;2.88;1.98;;;;;;;16.15;36.38;98001.97;5114038;28;20043;-75
2021/03/29 09:16:44;;;;;;;3.38;2.00;;;;;;;16.31;36.11;98000.63;5113817;28;20043;-74
2021/03/29 09:19:18;;;;;;;3.35;2.17;;;;;;;16.58;35.05;97993.25;5113998;28;20058;-75
2021/03/29 09:21:53;;;;;;;3.05;2.25;;;;;;;16.61;34.53;97996.28;5113945;28;20028;-74
2021/03/29 09:24:22;;;;;;;3.80;1.90;;;;;;;16.74;35.42;98007.78;5113781;28;20023;-74
2021/03/29 09:27:08;;;;;;;4.78;2.30;;;;;;;16.62;34.61;98000.53;5113825;28;20027;-74
2021/03/29 09:29:39;;;;;;;4.60;2.60;;;;;;;16.59;35.54;98001.00;5114051;28;20052;-74
2021/03/29 09:32:12;;;;;;;4.45;2.35;;;;;;;16.75;35.09;98007.53;5113676;28;20030;-75
2021/03/29 09:34:39;;;;;;;3.50;2.38;;;;;;;16.78;35.44;98006.31;5114437;28;20047;-75
2021/03/29 09:37:20;;;;;;;5.20;2.63;;;;;;;16.78;34.66;97999.16;5113806;28;20503;-75
2021/03/29 09:39:48;;;;;;;2.13;1.90;;;;;;;16.74;34.92;98000.63;5114050;28;20395;-75
2021/03/29 09:42:16;;;;;;;4.05;1.98;;;;;;;16.52;35.08;98002.06;5112832;28;20495;-75
2021/03/29 09:44:43;;;;;;;2.22;1.77;;;;;;;16.35;35.02;98005.25;5113606;28;20383;-75
2021/03/29 09:47:10;;;;;;;2.47;1.77;;;;;;;16.15;35.13;98010.72;5113710;28;20047;-74
2021/03/29 09:49:50;;;;;;;4.22;2.25;;;;;;;15.92;34.89;98011.28;5113614;28;20408;-75
2021/03/29 09:52:16;;;;;;;3.45;1.90;;;;;;;15.93;35.63;98015.53;5102817;28;20058;-75
2021/03/29 09:54:49;;;;;;;2.67;2.03;;;;;;;16.10;34.90;98010.53;5113459;28;20039;-74
2021/03/29 09:57:21;;;;;;;1.80;1.67;;;;;;;16.11;35.17;98011.38;5095573;28;20495;-74
2021/03/29 09:59:52;;;;;;;3.47;1.90;;;;;;;16.28;35.24;98004.50;5114058;28;20046;-74
2021/03/29 10:02:18;;;;;;;1.95;1.80;;;;;;;16.46;34.94;98003.72;5113372;28;20035;-74
2021/03/29 10:04:45;;;;;;;4.28;2.08;;;;;;;16.47;34.80;98004.56;5112100;28;20051;-74
2021/03/29 10:07:18;;;;;;;5.30;1.60;;;;;;;16.59;33.09;97998.34;5113530;28;20039;-74
2021/03/29 10:09:46;;;;;;;2.58;1.52;;;;;;;16.75;34.43;98012.03;5113262;28;20032;-74
2021/03/29 10:12:25;;;;;;;2.58;1.65;;;;;;;16.74;33.55;98013.09;5113965;28;20035;-75
2021/03/29 10:15:12;;;;;;;4.00;1.67;;;;;;;16.77;33.63;98004.69;5112177;28;20044;-75
2021/03/29 10:17:39;;;;;;;2.28;1.80;;;;;;;16.81;33.61;98011.19;5113355;28;20035;-75
2021/03/29 10:20:09;;;;;;;3.17;1.75;;;;;;;16.79;33.27;98016.69;5113341;28;20036;-75
2021/03/29 10:22:36;;;;;;;3.20;2.08;;;;;;;16.86;33.42;98007.88;5112083;28;20431;-75
2021/03/29 10:25:07;;;;;;;2.35;1.50;;;;;;;16.95;32.52;97998.63;5113211;28;20456;-74
2021/03/29 10:27:56;;;;;;;2.03;1.50;;;;;;;17.08;32.38;97998.47;5103934;28;20039;-75
2021/03/29 10:30:31;;;;;;;3.47;1.38;;;;;;;17.38;32.18;97993.22;5098817;28;20043;-74
2021/03/29 10:33:04;;;;;;;3.03;1.70;;;;;;;17.52;31.53;97985.09;5113248;28;20071;-75
2021/03/29 10:35:32;;;;;;;3.80;1.85;;;;;;;17.63;31.95;97992.28;5102087;28;20047;-75
2021/03/29 10:38:02;;;;;;;3.42;1.50;;;;;;;17.83;32.05;97990.19;5112594;28;20055;-74
2021/03/29 10:40:44;;;;;;;2.20;1.60;;;;;;;17.92;31.32;97997.84;5105958;28;20040;-74
2021/03/29 10:43:10;;;;;;;2.70;1.40;;;;;;;18.00;31.26;97989.56;5113770;28;20043;-75
2021/03/29 10:45:37;;;;;;;2.03;1.52;;;;;;;17.95;30.95;97987.56;5113065;28;20024;-75
2021/03/29 10:48:03;;;;;;;2.58;1.70;;;;;;;17.81;31.08;97986.13;5113152;28;20039;-75
2021/03/29 10:50:30;;;;;;;4.72;1.75;;;;;;;17.71;30.86;97993.81;5112888;28;20050;-75
2021/03/29 10:52:57;;;;;;;2.72;1.70;;;;;;;17.86;30.88;97988.94;5113440;28;20055;-74
2021/03/29 10:55:24;;;;;;;4.28;1.42;;;;;;;18.13;30.45;97980.56;5116586;28;20039;-75
2021/03/29 10:57:51;;;;;;;3.83;1.90;;;;;;;18.40;30.53;97984.41;5116892;28;20032;-75
2021/03/29 11:00:17;;;;;;;2.65;1.50;;;;;;;18.61;29.84;97985.69;5117011;28;20040;-75
2021/03/29 11:02:44;;;;;;;3.78;1.70;;;;;;;18.78;29.51;97975.19;5097522;28;20040;-74
2021/03/29 11:05:11;;;;;;;2.63;1.60;;;;;;;19.03;29.44;97974.13;5116368;28;20047;-75
2021/03/29 11:07:37;;;;;;;2.25;1.42;;;;;;;19.34;28.89;97975.53;5116464;28;20036;-75
2021/03/29 11:10:04;;;;;;;3.70;1.58;;;;;;;19.41;28.44;97984.19;5116188;28;20038;-75
2021/03/29 11:12:30;;;;;;;2.13;1.30;;;;;;;19.45;28.33;97974.69;5116526;28;20044;-74
2021/03/29 11:14:57;;;;;;;3.60;1.90;;;;;;;19.60;27.65;97968.03;5116404;28;20048;-75
2021/03/29 11:17:26;;;;;;;2.53;1.50;;;;;;;19.70;27.49;97965.59;5116281;28;20043;-74
2021/03/29 11:19:53;;;;;;;2.25;1.33;;;;;;;19.75;27.21;97970.19;5116171;28;20031;-75
2021/03/29 11:22:19;;;;;;;2.35;1.63;;;;;;;19.66;26.84;97965.22;5115858;28;20036;-75
2021/03/29 11:24:46;;;;;;;1.48;1.20;;;;;;;19.55;26.68;97962.59;5116100;28;20043;-75
2021/03/29 11:27:12;;;;;;;2.35;1.40;;;;;;;19.41;26.68;97956.78;5114679;28;20062;-74
2021/03/29 11:29:38;;;;;;;2.90;1.75;;;;;;;19.54;26.62;97956.47;5116148;28;20035;-74
2021/03/29 11:32:05;;;;;;;4.05;1.70;;;;;;;19.55;26.38;97954.59;5115213;28;20036;-75
2021/03/29 11:34:31;;;;;;;2.53;1.48;;;;;;;19.61;25.83;97957.16;5115902;28;20507;-74
2021/03/29 11:36:57;;;;;;;2.95;1.48;;;;;;;19.80;25.71;97956.94;5115710;28;20044;-75
2021/03/29 11:39:24;;;;;;;2.20;1.15;;;;;;;19.91;25.38;97953.44;5115824;28;20035;-75
2021/03/29 11:41:50;;;;;;;2.58;1.45;;;;;;;20.21;25.79;97945.09;5114981;28;20047;-74
2021/03/29 11:44:17;;;;;;;2.60;1.42;;;;;;;20.59;25.52;97945.41;5115957;28;20035;-74
2021/03/29 11:46:43;;;;;;;2.55;1.40;;;;;;;20.81;25.06;97948.09;5114968;28;20055;-75
2021/03/29 11:49:11;;;;;;;2.20;1.20;;;;;;;21.10;24.68;97943.41;5115579;28;20040;-74
2021/03/29 11:51:38;;;;;;;1.77;1.25;;;;;;;21.20;24.26;97948.06;5115256;28;20039;-75
2021/03/29 11:54:05;;;;;;;2.65;1.17;;;;;;;21.21;24.00;97941.69;5115566;28;20043;-75
2021/03/29 11:56:38;;;;;;;1.88;1.48;;;;;;;21.17;23.39;97938.69;5115290;28;20040;-74